sensor_id;sensor_type;location;lat;lon;timestamp;temperature;humidity
54485;DHT22;45006;56.958;24.166;2023-02-21T00:01:41;22.50;68.10
54485;DHT22;45006;56.958;24.166;2023-02-21T00:04:26;22.50;68.20
54485;DHT22;45006;56.958;24.166;2023-02-21T00:07:12;22.50;68.30
54485;DHT22;45006;56.958;24.166;2023-02-21T00:09:57;22.50;68.70
54485;DHT22;45006;56.958;24.166;2023-02-21T00:12:43;22.50;68.40
54485;DHT22;45006;56.958;24.166;2023-02-21T00:15:29;22.50;68.90
54485;DHT22;45006;56.958;24.166;2023-02-21T00:18:14;22.50;68.70
54485;DHT22;45006;56.958;24.166;2023-02-21T00:21:00;22.50;68.60
54485;DHT22;45006;56.958;24.166;2023-02-21T00:23:45;22.50;68.40
54485;DHT22;45006;56.958;24.166;2023-02-21T00:26:31;22.60;68.50
54485;DHT22;45006;56.958;24.166;2023-02-21T00:29:18;22.60;68.70
54485;DHT22;45006;56.958;24.166;2023-02-21T00:32:04;22.50;68.90
54485;DHT22;45006;56.958;24.166;2023-02-21T00:34:49;22.60;68.70
54485;DHT22;45006;56.958;24.166;2023-02-21T00:37:35;22.60;68.70
54485;DHT22;45006;56.958;24.166;2023-02-21T00:40:21;22.60;68.90
54485;DHT22;45006;56.958;24.166;2023-02-21T00:43:06;22.60;68.50
54485;DHT22;45006;56.958;24.166;2023-02-21T00:45:52;22.60;69.70
54485;DHT22;45006;56.958;24.166;2023-02-21T00:48:38;22.60;68.70
54485;DHT22;45006;56.958;24.166;2023-02-21T00:51:23;22.60;69.10
54485;DHT22;45006;56.958;24.166;2023-02-21T00:54:09;22.60;68.50
54485;DHT22;45006;56.958;24.166;2023-02-21T00:56:55;22.60;69.20
54485;DHT22;45006;56.958;24.166;2023-02-21T00:59:40;22.60;68.50
54485;DHT22;45006;56.958;24.166;2023-02-21T01:02:26;22.60;69.00
54485;DHT22;45006;56.958;24.166;2023-02-21T01:05:13;22.60;68.40
54485;DHT22;45006;56.958;24.166;2023-02-21T01:07:59;22.60;69.30
54485;DHT22;45006;56.958;24.166;2023-02-21T01:10:44;22.60;69.20
54485;DHT22;45006;56.958;24.166;2023-02-21T01:13:30;22.60;68.90
54485;DHT22;45006;56.958;24.166;2023-02-21T01:16:15;22.60;68.50
54485;DHT22;45006;56.958;24.166;2023-02-21T01:19:03;22.60;68.60
54485;DHT22;45006;56.958;24.166;2023-02-21T01:21:48;22.60;68.90
54485;DHT22;45006;56.958;24.166;2023-02-21T01:24:34;22.60;68.60
54485;DHT22;45006;56.958;24.166;2023-02-21T01:27:19;22.60;68.60
54485;DHT22;45006;56.958;24.166;2023-02-21T01:30:05;22.60;68.60
54485;DHT22;45006;56.958;24.166;2023-02-21T01:32:51;22.60;68.20
54485;DHT22;45006;56.958;24.166;2023-02-21T01:35:36;22.60;68.50
54485;DHT22;45006;56.958;24.166;2023-02-21T01:38:23;22.60;68.60
54485;DHT22;45006;56.958;24.166;2023-02-21T01:41:09;22.60;67.90
54485;DHT22;45006;56.958;24.166;2023-02-21T01:43:58;22.60;67.80
54485;DHT22;45006;56.958;24.166;2023-02-21T01:46:44;22.60;68.50
54485;DHT22;45006;56.958;24.166;2023-02-21T01:49:31;22.60;68.60
54485;DHT22;45006;56.958;24.166;2023-02-21T01:52:18;22.60;68.20
54485;DHT22;45006;56.958;24.166;2023-02-21T01:55:03;22.60;68.10
54485;DHT22;45006;56.958;24.166;2023-02-21T01:57:51;22.60;68.30
54485;DHT22;45006;56.958;24.166;2023-02-21T02:00:38;22.60;68.40
54485;DHT22;45006;56.958;24.166;2023-02-21T02:03:24;22.60;67.90
54485;DHT22;45006;56.958;24.166;2023-02-21T02:06:13;22.60;68.10
54485;DHT22;45006;56.958;24.166;2023-02-21T02:09:13;22.60;67.90
54485;DHT22;45006;56.958;24.166;2023-02-21T02:18:01;22.60;67.90
54485;DHT22;45006;56.958;24.166;2023-02-21T02:25:59;22.60;67.10
54485;DHT22;45006;56.958;24.166;2023-02-21T02:31:20;22.60;67.70
54485;DHT22;45006;56.958;24.166;2023-02-21T02:36:57;22.60;67.60
54485;DHT22;45006;56.958;24.166;2023-02-21T02:39:39;22.60;67.90
54485;DHT22;45006;56.958;24.166;2023-02-21T02:45:00;22.60;67.60
54485;DHT22;45006;56.958;24.166;2023-02-21T02:47:32;22.60;67.50
54485;DHT22;45006;56.958;24.166;2023-02-21T02:50:00;22.70;67.60
54485;DHT22;45006;56.958;24.166;2023-02-21T02:52:29;22.70;67.60
54485;DHT22;45006;56.958;24.166;2023-02-21T02:55:01;22.70;67.70
54485;DHT22;45006;56.958;24.166;2023-02-21T02:57:32;22.70;67.40
54485;DHT22;45006;56.958;24.166;2023-02-21T03:00:09;22.70;67.50
54485;DHT22;45006;56.958;24.166;2023-02-21T03:08:33;22.70;67.90
54485;DHT22;45006;56.958;24.166;2023-02-21T03:11:19;22.70;67.50
54485;DHT22;45006;56.958;24.166;2023-02-21T03:13:52;22.70;67.80
54485;DHT22;45006;56.958;24.166;2023-02-21T03:18:57;22.70;66.90
54485;DHT22;45006;56.958;24.166;2023-02-21T03:21:30;22.70;67.10
54485;DHT22;45006;56.958;24.166;2023-02-21T03:23:59;22.70;67.20
54485;DHT22;45006;56.958;24.166;2023-02-21T03:26:30;22.70;66.20
54485;DHT22;45006;56.958;24.166;2023-02-21T03:28:58;22.70;66.20
54485;DHT22;45006;56.958;24.166;2023-02-21T03:31:28;22.70;67.10
54485;DHT22;45006;56.958;24.166;2023-02-21T03:33:56;22.70;66.40
54485;DHT22;45006;56.958;24.166;2023-02-21T03:36:24;22.70;66.60
54485;DHT22;45006;56.958;24.166;2023-02-21T03:38:51;22.70;66.70
54485;DHT22;45006;56.958;24.166;2023-02-21T03:41:18;22.70;66.90
54485;DHT22;45006;56.958;24.166;2023-02-21T03:43:47;22.70;67.00
54485;DHT22;45006;56.958;24.166;2023-02-21T03:46:14;22.70;67.10
54485;DHT22;45006;56.958;24.166;2023-02-21T03:48:41;22.70;66.40
54485;DHT22;45006;56.958;24.166;2023-02-21T03:51:08;22.70;67.10
54485;DHT22;45006;56.958;24.166;2023-02-21T03:53:36;22.70;67.00
54485;DHT22;45006;56.958;24.166;2023-02-21T03:56:03;22.60;66.80
54485;DHT22;45006;56.958;24.166;2023-02-21T03:58:30;22.70;67.00
54485;DHT22;45006;56.958;24.166;2023-02-21T04:00:57;22.70;67.20
54485;DHT22;45006;56.958;24.166;2023-02-21T04:03:24;22.70;67.00
54485;DHT22;45006;56.958;24.166;2023-02-21T04:05:51;22.70;66.90
54485;DHT22;45006;56.958;24.166;2023-02-21T04:08:19;22.70;67.10
54485;DHT22;45006;56.958;24.166;2023-02-21T04:10:46;22.70;66.80
54485;DHT22;45006;56.958;24.166;2023-02-21T04:13:18;22.70;67.10
54485;DHT22;45006;56.958;24.166;2023-02-21T04:15:45;22.70;66.80
54485;DHT22;45006;56.958;24.166;2023-02-21T04:18:12;22.70;66.80
54485;DHT22;45006;56.958;24.166;2023-02-21T04:20:41;22.70;66.90
54485;DHT22;45006;56.958;24.166;2023-02-21T04:23:08;22.70;67.20
54485;DHT22;45006;56.958;24.166;2023-02-21T04:25:36;22.70;66.90
54485;DHT22;45006;56.958;24.166;2023-02-21T04:28:02;22.70;67.20
54485;DHT22;45006;56.958;24.166;2023-02-21T04:30:31;22.70;66.90
54485;DHT22;45006;56.958;24.166;2023-02-21T04:32:58;22.70;66.90
54485;DHT22;45006;56.958;24.166;2023-02-21T04:35:24;22.70;66.90
54485;DHT22;45006;56.958;24.166;2023-02-21T04:37:51;22.70;67.20
54485;DHT22;45006;56.958;24.166;2023-02-21T04:40:18;22.70;66.80
54485;DHT22;45006;56.958;24.166;2023-02-21T04:42:45;22.70;67.50
54485;DHT22;45006;56.958;24.166;2023-02-21T04:45:13;22.70;67.00
54485;DHT22;45006;56.958;24.166;2023-02-21T04:47:40;22.70;66.70
54485;DHT22;45006;56.958;24.166;2023-02-21T04:50:07;22.70;66.50
54485;DHT22;45006;56.958;24.166;2023-02-21T04:52:35;22.70;66.90
54485;DHT22;45006;56.958;24.166;2023-02-21T04:55:02;22.70;66.40
54485;DHT22;45006;56.958;24.166;2023-02-21T04:57:31;22.70;66.60
54485;DHT22;45006;56.958;24.166;2023-02-21T04:59:59;22.70;66.60
54485;DHT22;45006;56.958;24.166;2023-02-21T05:02:27;22.70;66.50
54485;DHT22;45006;56.958;24.166;2023-02-21T05:04:53;22.70;66.70
54485;DHT22;45006;56.958;24.166;2023-02-21T05:07:20;22.70;66.50
54485;DHT22;45006;56.958;24.166;2023-02-21T05:09:47;22.70;66.20
54485;DHT22;45006;56.958;24.166;2023-02-21T05:12:15;22.70;66.50
54485;DHT22;45006;56.958;24.166;2023-02-21T05:14:42;22.70;66.50
54485;DHT22;45006;56.958;24.166;2023-02-21T05:17:09;22.70;66.70
54485;DHT22;45006;56.958;24.166;2023-02-21T05:19:36;22.70;65.60
54485;DHT22;45006;56.958;24.166;2023-02-21T05:22:03;22.70;65.60
54485;DHT22;45006;56.958;24.166;2023-02-21T05:24:33;22.70;65.70
54485;DHT22;45006;56.958;24.166;2023-02-21T05:27:00;22.70;66.90
54485;DHT22;45006;56.958;24.166;2023-02-21T05:29:27;22.70;66.90
54485;DHT22;45006;56.958;24.166;2023-02-21T05:31:53;22.70;67.00
54485;DHT22;45006;56.958;24.166;2023-02-21T05:34:21;22.70;67.20
54485;DHT22;45006;56.958;24.166;2023-02-21T05:36:48;22.70;67.40
54485;DHT22;45006;56.958;24.166;2023-02-21T05:39:15;22.70;67.50
54485;DHT22;45006;56.958;24.166;2023-02-21T05:41:47;22.70;67.60
54485;DHT22;45006;56.958;24.166;2023-02-21T05:44:14;22.70;68.30
54485;DHT22;45006;56.958;24.166;2023-02-21T05:46:43;22.70;67.70
54485;DHT22;45006;56.958;24.166;2023-02-21T05:49:12;22.70;67.80
54485;DHT22;45006;56.958;24.166;2023-02-21T05:51:41;22.70;67.90
54485;DHT22;45006;56.958;24.166;2023-02-21T05:54:13;22.70;67.90
54485;DHT22;45006;56.958;24.166;2023-02-21T05:56:42;22.70;68.10
54485;DHT22;45006;56.958;24.166;2023-02-21T05:59:15;22.70;68.10
54485;DHT22;45006;56.958;24.166;2023-02-21T06:01:42;22.70;68.10
54485;DHT22;45006;56.958;24.166;2023-02-21T06:04:09;22.70;68.30
54485;DHT22;45006;56.958;24.166;2023-02-21T06:06:36;22.70;69.00
54485;DHT22;45006;56.958;24.166;2023-02-21T06:09:05;22.70;68.50
54485;DHT22;45006;56.958;24.166;2023-02-21T06:11:34;22.70;68.50
54485;DHT22;45006;56.958;24.166;2023-02-21T06:14:04;22.70;68.50
54485;DHT22;45006;56.958;24.166;2023-02-21T06:16:38;22.70;68.50
54485;DHT22;45006;56.958;24.166;2023-02-21T06:19:07;22.70;68.70
54485;DHT22;45006;56.958;24.166;2023-02-21T06:21:36;22.70;68.80
54485;DHT22;45006;56.958;24.166;2023-02-21T06:24:03;22.70;68.80
54485;DHT22;45006;56.958;24.166;2023-02-21T06:26:32;22.70;68.90
54485;DHT22;45006;56.958;24.166;2023-02-21T06:28:59;22.70;68.90
54485;DHT22;45006;56.958;24.166;2023-02-21T06:31:26;22.70;69.00
54485;DHT22;45006;56.958;24.166;2023-02-21T06:33:53;22.70;69.10
54485;DHT22;45006;56.958;24.166;2023-02-21T06:36:24;22.70;69.20
54485;DHT22;45006;56.958;24.166;2023-02-21T06:38:53;22.70;69.20
54485;DHT22;45006;56.958;24.166;2023-02-21T06:41:27;22.70;69.30
54485;DHT22;45006;56.958;24.166;2023-02-21T06:43:55;22.70;69.50
54485;DHT22;45006;56.958;24.166;2023-02-21T06:46:24;22.70;69.60
54485;DHT22;45006;56.958;24.166;2023-02-21T06:48:52;22.70;69.60
54485;DHT22;45006;56.958;24.166;2023-02-21T06:51:19;22.70;69.80
54485;DHT22;45006;56.958;24.166;2023-02-21T06:53:49;22.70;69.80
54485;DHT22;45006;56.958;24.166;2023-02-21T06:56:16;22.70;70.00
54485;DHT22;45006;56.958;24.166;2023-02-21T06:58:43;22.70;70.10
54485;DHT22;45006;56.958;24.166;2023-02-21T07:01:10;22.70;70.10
54485;DHT22;45006;56.958;24.166;2023-02-21T07:03:40;22.70;70.20
54485;DHT22;45006;56.958;24.166;2023-02-21T07:06:11;22.70;70.20
54485;DHT22;45006;56.958;24.166;2023-02-21T07:08:38;22.70;70.40
54485;DHT22;45006;56.958;24.166;2023-02-21T07:11:05;22.70;70.40
54485;DHT22;45006;56.958;24.166;2023-02-21T07:13:32;22.70;70.50
54485;DHT22;45006;56.958;24.166;2023-02-21T07:16:01;22.70;70.40
54485;DHT22;45006;56.958;24.166;2023-02-21T07:18:28;22.70;70.50
54485;DHT22;45006;56.958;24.166;2023-02-21T07:20:55;22.70;70.60
54485;DHT22;45006;56.958;24.166;2023-02-21T07:23:22;22.70;70.70
54485;DHT22;45006;56.958;24.166;2023-02-21T07:25:49;22.80;70.80
54485;DHT22;45006;56.958;24.166;2023-02-21T07:28:17;22.70;70.70
54485;DHT22;45006;56.958;24.166;2023-02-21T07:30:45;22.70;70.90
54485;DHT22;45006;56.958;24.166;2023-02-21T07:33:13;22.80;70.90
54485;DHT22;45006;56.958;24.166;2023-02-21T07:35:39;22.70;71.10
54485;DHT22;45006;56.958;24.166;2023-02-21T07:38:06;22.80;70.90
54485;DHT22;45006;56.958;24.166;2023-02-21T07:40:36;22.80;71.00
54485;DHT22;45006;56.958;24.166;2023-02-21T07:43:03;22.80;71.00
54485;DHT22;45006;56.958;24.166;2023-02-21T07:45:30;22.80;71.10
54485;DHT22;45006;56.958;24.166;2023-02-21T07:47:58;22.80;71.20
54485;DHT22;45006;56.958;24.166;2023-02-21T07:50:25;22.80;71.20
54485;DHT22;45006;56.958;24.166;2023-02-21T07:52:51;22.80;71.30
54485;DHT22;45006;56.958;24.166;2023-02-21T07:55:18;22.80;71.40
54485;DHT22;45006;56.958;24.166;2023-02-21T07:57:47;22.80;71.30
54485;DHT22;45006;56.958;24.166;2023-02-21T08:00:14;22.80;71.40
54485;DHT22;45006;56.958;24.166;2023-02-21T08:02:46;22.80;71.30
54485;DHT22;45006;56.958;24.166;2023-02-21T08:05:15;22.80;71.50
54485;DHT22;45006;56.958;24.166;2023-02-21T08:07:42;22.80;71.80
54485;DHT22;45006;56.958;24.166;2023-02-21T08:10:09;22.80;72.00
54485;DHT22;45006;56.958;24.166;2023-02-21T08:12:36;22.80;71.90
54485;DHT22;45006;56.958;24.166;2023-02-21T08:15:04;22.80;72.40
54485;DHT22;45006;56.958;24.166;2023-02-21T08:17:32;22.80;72.30
54485;DHT22;45006;56.958;24.166;2023-02-21T08:19:58;22.80;72.40
54485;DHT22;45006;56.958;24.166;2023-02-21T08:22:25;22.80;72.60
54485;DHT22;45006;56.958;24.166;2023-02-21T08:24:52;22.80;72.90
54485;DHT22;45006;56.958;24.166;2023-02-21T08:27:19;22.80;69.40
54485;DHT22;45006;56.958;24.166;2023-02-21T08:29:49;22.80;68.30
54485;DHT22;45006;56.958;24.166;2023-02-21T08:32:17;22.80;65.60
54485;DHT22;45006;56.958;24.166;2023-02-21T08:34:48;22.80;66.10
54485;DHT22;45006;56.958;24.166;2023-02-21T08:37:15;22.80;67.10
54485;DHT22;45006;56.958;24.166;2023-02-21T08:39:47;22.80;66.30
54485;DHT22;45006;56.958;24.166;2023-02-21T08:42:14;22.80;66.30
54485;DHT22;45006;56.958;24.166;2023-02-21T08:44:43;22.80;64.90
54485;DHT22;45006;56.958;24.166;2023-02-21T08:47:12;22.80;65.20
54485;DHT22;45006;56.958;24.166;2023-02-21T08:49:39;22.70;65.10
54485;DHT22;45006;56.958;24.166;2023-02-21T08:52:09;22.80;65.00
54485;DHT22;45006;56.958;24.166;2023-02-21T08:54:36;22.70;64.90
54485;DHT22;45006;56.958;24.166;2023-02-21T08:57:03;22.70;64.70
54485;DHT22;45006;56.958;24.166;2023-02-21T08:59:30;22.80;64.50
54485;DHT22;45006;56.958;24.166;2023-02-21T09:02:00;22.70;64.50
54485;DHT22;45006;56.958;24.166;2023-02-21T09:04:27;22.70;65.10
54485;DHT22;45006;56.958;24.166;2023-02-21T09:06:55;22.70;64.60
54485;DHT22;45006;56.958;24.166;2023-02-21T09:09:22;22.70;64.70
54485;DHT22;45006;56.958;24.166;2023-02-21T09:11:49;22.70;64.50
54485;DHT22;45006;56.958;24.166;2023-02-21T09:14:16;22.70;64.20
54485;DHT22;45006;56.958;24.166;2023-02-21T09:16:43;22.70;64.10
54485;DHT22;45006;56.958;24.166;2023-02-21T09:19:13;22.70;65.10
54485;DHT22;45006;56.958;24.166;2023-02-21T09:21:45;22.70;65.10
54485;DHT22;45006;56.958;24.166;2023-02-21T09:24:12;22.70;64.50
54485;DHT22;45006;56.958;24.166;2023-02-21T09:26:40;22.70;64.60
54485;DHT22;45006;56.958;24.166;2023-02-21T09:29:08;22.70;64.40
54485;DHT22;45006;56.958;24.166;2023-02-21T09:31:36;22.70;64.20
54485;DHT22;45006;56.958;24.166;2023-02-21T09:34:02;22.70;64.60
54485;DHT22;45006;56.958;24.166;2023-02-21T09:36:29;22.70;65.20
54485;DHT22;45006;56.958;24.166;2023-02-21T09:38:56;22.70;65.10
54485;DHT22;45006;56.958;24.166;2023-02-21T09:41:25;22.70;65.10
54485;DHT22;45006;56.958;24.166;2023-02-21T09:43:53;22.70;64.90
54485;DHT22;45006;56.958;24.166;2023-02-21T09:49:06;22.70;65.00
54485;DHT22;45006;56.958;24.166;2023-02-21T09:51:34;22.70;65.20
54485;DHT22;45006;56.958;24.166;2023-02-21T09:54:16;22.70;64.50
54485;DHT22;45006;56.958;24.166;2023-02-21T09:56:45;22.70;64.90
54485;DHT22;45006;56.958;24.166;2023-02-21T09:59:12;22.70;64.50
54485;DHT22;45006;56.958;24.166;2023-02-21T10:07:15;22.70;62.10
54485;DHT22;45006;56.958;24.166;2023-02-21T10:09:58;22.70;62.50
54485;DHT22;45006;56.958;24.166;2023-02-21T10:12:34;22.70;62.50
54485;DHT22;45006;56.958;24.166;2023-02-21T10:21:01;22.70;62.90
54485;DHT22;45006;56.958;24.166;2023-02-21T10:23:42;22.70;63.00
54485;DHT22;45006;56.958;24.166;2023-02-21T10:26:13;22.70;63.20
54485;DHT22;45006;56.958;24.166;2023-02-21T10:28:41;22.70;63.40
54485;DHT22;45006;56.958;24.166;2023-02-21T10:31:13;22.70;63.30
54485;DHT22;45006;56.958;24.166;2023-02-21T10:33:43;22.70;63.30
54485;DHT22;45006;56.958;24.166;2023-02-21T10:36:15;22.70;63.30
54485;DHT22;45006;56.958;24.166;2023-02-21T10:39:03;22.70;63.30
54485;DHT22;45006;56.958;24.166;2023-02-21T10:41:36;22.70;63.50
54485;DHT22;45006;56.958;24.166;2023-02-21T10:44:28;22.70;63.10
54485;DHT22;45006;56.958;24.166;2023-02-21T10:47:13;22.70;63.20
54485;DHT22;45006;56.958;24.166;2023-02-21T10:49:46;22.70;63.50
54485;DHT22;45006;56.958;24.166;2023-02-21T10:52:18;22.70;63.20
54485;DHT22;45006;56.958;24.166;2023-02-21T10:55:20;22.70;63.60
54485;DHT22;45006;56.958;24.166;2023-02-21T10:58:09;22.70;63.60
54485;DHT22;45006;56.958;24.166;2023-02-21T11:00:43;22.70;63.60
54485;DHT22;45006;56.958;24.166;2023-02-21T11:05:49;22.70;63.20
54485;DHT22;45006;56.958;24.166;2023-02-21T11:08:40;22.70;62.70
54485;DHT22;45006;56.958;24.166;2023-02-21T11:11:07;22.70;62.50
54485;DHT22;45006;56.958;24.166;2023-02-21T11:13:35;22.70;62.40
54485;DHT22;45006;56.958;24.166;2023-02-21T11:16:26;22.70;61.70
54485;DHT22;45006;56.958;24.166;2023-02-21T11:19:06;22.60;61.50
54485;DHT22;45006;56.958;24.166;2023-02-21T11:21:34;22.60;60.90
54485;DHT22;45006;56.958;24.166;2023-02-21T11:24:03;22.70;60.70
54485;DHT22;45006;56.958;24.166;2023-02-21T11:26:47;22.70;60.70
54485;DHT22;45006;56.958;24.166;2023-02-21T11:29:19;22.70;60.80
54485;DHT22;45006;56.958;24.166;2023-02-21T11:31:48;22.70;60.70
54485;DHT22;45006;56.958;24.166;2023-02-21T11:34:16;22.60;62.10
54485;DHT22;45006;56.958;24.166;2023-02-21T11:36:46;22.60;62.70
54485;DHT22;45006;56.958;24.166;2023-02-21T11:39:16;22.60;62.50
54485;DHT22;45006;56.958;24.166;2023-02-21T11:41:56;22.70;62.50
54485;DHT22;45006;56.958;24.166;2023-02-21T11:44:30;22.70;62.10
54485;DHT22;45006;56.958;24.166;2023-02-21T11:47:16;22.70;62.20
54485;DHT22;45006;56.958;24.166;2023-02-21T11:53:12;22.70;61.90
54485;DHT22;45006;56.958;24.166;2023-02-21T11:55:16;22.70;62.10
54485;DHT22;45006;56.958;24.166;2023-02-21T12:06:34;22.60;62.10
54485;DHT22;45006;56.958;24.166;2023-02-21T12:09:25;22.60;61.30
54485;DHT22;45006;56.958;24.166;2023-02-21T12:12:10;22.60;62.10
54485;DHT22;45006;56.958;24.166;2023-02-21T12:17:40;22.60;62.10
54485;DHT22;45006;56.958;24.166;2023-02-21T12:43:18;22.70;62.50
54485;DHT22;45006;56.958;24.166;2023-02-21T12:45:56;22.70;62.50
54485;DHT22;45006;56.958;24.166;2023-02-21T12:48:32;22.70;62.60
54485;DHT22;45006;56.958;24.166;2023-02-21T12:51:06;22.70;62.70
54485;DHT22;45006;56.958;24.166;2023-02-21T12:53:47;22.70;62.70
54485;DHT22;45006;56.958;24.166;2023-02-21T12:56:34;22.70;62.60
54485;DHT22;45006;56.958;24.166;2023-02-21T12:59:20;22.70;62.70
54485;DHT22;45006;56.958;24.166;2023-02-21T13:02:00;22.70;62.80
54485;DHT22;45006;56.958;24.166;2023-02-21T13:04:53;22.70;62.70
54485;DHT22;45006;56.958;24.166;2023-02-21T13:07:55;22.70;62.80
54485;DHT22;45006;56.958;24.166;2023-02-21T13:13:31;22.70;62.80
54485;DHT22;45006;56.958;24.166;2023-02-21T13:16:04;22.70;62.80
54485;DHT22;45006;56.958;24.166;2023-02-21T13:18:38;22.70;62.90
54485;DHT22;45006;56.958;24.166;2023-02-21T13:28:54;22.70;62.80
54485;DHT22;45006;56.958;24.166;2023-02-21T13:31:27;22.70;63.60
54485;DHT22;45006;56.958;24.166;2023-02-21T13:33:56;22.70;62.90
54485;DHT22;45006;56.958;24.166;2023-02-21T13:39:12;22.70;62.90
54485;DHT22;45006;56.958;24.166;2023-02-21T13:41:49;22.70;62.90
54485;DHT22;45006;56.958;24.166;2023-02-21T13:44:25;22.70;62.90
54485;DHT22;45006;56.958;24.166;2023-02-21T13:47:10;22.70;62.90
54485;DHT22;45006;56.958;24.166;2023-02-21T13:49:55;22.70;62.90
54485;DHT22;45006;56.958;24.166;2023-02-21T13:52:27;22.70;62.90
54485;DHT22;45006;56.958;24.166;2023-02-21T14:02:57;22.70;62.90
54485;DHT22;45006;56.958;24.166;2023-02-21T14:05:26;22.70;62.80
54485;DHT22;45006;56.958;24.166;2023-02-21T14:16:50;22.60;62.80
54485;DHT22;45006;56.958;24.166;2023-02-21T14:19:25;22.60;63.00
54485;DHT22;45006;56.958;24.166;2023-02-21T14:22:00;22.60;62.90
54485;DHT22;45006;56.958;24.166;2023-02-21T14:34:59;22.70;83.80
54485;DHT22;45006;56.958;24.166;2023-02-21T14:37:41;22.70;81.90
54485;DHT22;45006;56.958;24.166;2023-02-21T14:40:39;22.70;81.60
54485;DHT22;45006;56.958;24.166;2023-02-21T14:49:38;22.70;81.40
54485;DHT22;45006;56.958;24.166;2023-02-21T15:03:46;22.70;81.00
54485;DHT22;45006;56.958;24.166;2023-02-21T15:06:19;22.60;80.90
54485;DHT22;45006;56.958;24.166;2023-02-21T15:08:50;22.70;80.70
54485;DHT22;45006;56.958;24.166;2023-02-21T15:13:47;22.70;80.50
54485;DHT22;45006;56.958;24.166;2023-02-21T15:16:15;22.60;80.20
54485;DHT22;45006;56.958;24.166;2023-02-21T15:19:00;22.70;80.40
54485;DHT22;45006;56.958;24.166;2023-02-21T15:21:27;22.60;80.10
54485;DHT22;45006;56.958;24.166;2023-02-21T15:24:20;22.60;80.10
54485;DHT22;45006;56.958;24.166;2023-02-21T15:26:48;22.60;80.00
54485;DHT22;45006;56.958;24.166;2023-02-21T15:29:33;22.60;80.00
54485;DHT22;45006;56.958;24.166;2023-02-21T15:32:02;22.60;79.80
54485;DHT22;45006;56.958;24.166;2023-02-21T15:34:38;22.60;79.90
54485;DHT22;45006;56.958;24.166;2023-02-21T15:37:26;22.60;79.80
54485;DHT22;45006;56.958;24.166;2023-02-21T15:40:01;22.60;80.10
54485;DHT22;45006;56.958;24.166;2023-02-21T15:42:31;22.60;79.90
54485;DHT22;45006;56.958;24.166;2023-02-21T15:45:08;22.60;80.00
54485;DHT22;45006;56.958;24.166;2023-02-21T15:47:37;22.60;79.60
54485;DHT22;45006;56.958;24.166;2023-02-21T15:50:12;22.60;79.40
54485;DHT22;45006;56.958;24.166;2023-02-21T15:52:44;22.60;79.40
54485;DHT22;45006;56.958;24.166;2023-02-21T15:55:29;22.60;79.10
54485;DHT22;45006;56.958;24.166;2023-02-21T16:00:32;22.60;79.10
54485;DHT22;45006;56.958;24.166;2023-02-21T16:03:37;22.60;79.00
54485;DHT22;45006;56.958;24.166;2023-02-21T16:11:47;22.60;78.50
54485;DHT22;45006;56.958;24.166;2023-02-21T16:14:33;22.50;79.00
54485;DHT22;45006;56.958;24.166;2023-02-21T16:17:21;22.50;79.10
54485;DHT22;45006;56.958;24.166;2023-02-21T16:19:52;22.50;79.30
54485;DHT22;45006;56.958;24.166;2023-02-21T16:27:40;22.50;79.70
54485;DHT22;45006;56.958;24.166;2023-02-21T16:30:12;22.50;79.70
54485;DHT22;45006;56.958;24.166;2023-02-21T16:32:42;22.50;79.40
54485;DHT22;45006;56.958;24.166;2023-02-21T16:35:20;22.50;79.20
54485;DHT22;45006;56.958;24.166;2023-02-21T16:37:54;22.50;79.30
54485;DHT22;45006;56.958;24.166;2023-02-21T16:40:27;22.50;78.70
54485;DHT22;45006;56.958;24.166;2023-02-21T16:42:56;22.60;78.50
54485;DHT22;45006;56.958;24.166;2023-02-21T16:45:23;22.60;78.70
54485;DHT22;45006;56.958;24.166;2023-02-21T16:47:58;22.60;78.70
54485;DHT22;45006;56.958;24.166;2023-02-21T16:50:32;22.60;78.60
54485;DHT22;45006;56.958;24.166;2023-02-21T16:53:00;22.60;78.70
54485;DHT22;45006;56.958;24.166;2023-02-21T16:55:29;22.60;78.40
54485;DHT22;45006;56.958;24.166;2023-02-21T16:58:30;22.60;78.70
54485;DHT22;45006;56.958;24.166;2023-02-21T17:01:28;22.60;78.60
54485;DHT22;45006;56.958;24.166;2023-02-21T17:03:55;22.60;78.70
54485;DHT22;45006;56.958;24.166;2023-02-21T17:06:23;22.60;78.60
54485;DHT22;45006;56.958;24.166;2023-02-21T17:08:51;22.60;78.60
54485;DHT22;45006;56.958;24.166;2023-02-21T17:11:18;22.60;78.50
54485;DHT22;45006;56.958;24.166;2023-02-21T17:13:45;22.60;78.60
54485;DHT22;45006;56.958;24.166;2023-02-21T17:16:12;22.60;78.60
54485;DHT22;45006;56.958;24.166;2023-02-21T17:18:39;22.50;78.50
54485;DHT22;45006;56.958;24.166;2023-02-21T17:21:06;22.60;78.50
54485;DHT22;45006;56.958;24.166;2023-02-21T17:23:33;22.60;78.50
54485;DHT22;45006;56.958;24.166;2023-02-21T17:26:00;22.60;78.50
54485;DHT22;45006;56.958;24.166;2023-02-21T17:28:27;22.50;78.60
54485;DHT22;45006;56.958;24.166;2023-02-21T17:30:54;22.60;78.50
54485;DHT22;45006;56.958;24.166;2023-02-21T17:33:21;22.60;78.40
54485;DHT22;45006;56.958;24.166;2023-02-21T17:35:48;22.60;78.50
54485;DHT22;45006;56.958;24.166;2023-02-21T17:38:15;22.50;78.40
54485;DHT22;45006;56.958;24.166;2023-02-21T17:40:42;22.50;78.40
54485;DHT22;45006;56.958;24.166;2023-02-21T17:43:15;22.50;78.50
54485;DHT22;45006;56.958;24.166;2023-02-21T17:45:43;22.50;78.20
54485;DHT22;45006;56.958;24.166;2023-02-21T17:48:11;22.60;78.30
54485;DHT22;45006;56.958;24.166;2023-02-21T17:50:38;22.60;78.30
54485;DHT22;45006;56.958;24.166;2023-02-21T17:53:06;22.60;78.40
54485;DHT22;45006;56.958;24.166;2023-02-21T17:55:35;22.50;78.30
54485;DHT22;45006;56.958;24.166;2023-02-21T17:58:03;22.50;78.30
54485;DHT22;45006;56.958;24.166;2023-02-21T18:00:30;22.50;78.10
54485;DHT22;45006;56.958;24.166;2023-02-21T18:03:01;22.50;78.10
54485;DHT22;45006;56.958;24.166;2023-02-21T18:05:30;22.50;78.00
54485;DHT22;45006;56.958;24.166;2023-02-21T18:07:57;22.50;78.00
54485;DHT22;45006;56.958;24.166;2023-02-21T18:10:25;22.50;78.00
54485;DHT22;45006;56.958;24.166;2023-02-21T18:12:54;22.50;78.00
54485;DHT22;45006;56.958;24.166;2023-02-21T18:15:23;22.50;77.90
54485;DHT22;45006;56.958;24.166;2023-02-21T18:17:50;22.50;77.70
54485;DHT22;45006;56.958;24.166;2023-02-21T18:20:19;22.50;77.80
54485;DHT22;45006;56.958;24.166;2023-02-21T18:22:46;22.50;77.70
54485;DHT22;45006;56.958;24.166;2023-02-21T18:25:14;22.50;78.30
54485;DHT22;45006;56.958;24.166;2023-02-21T18:27:42;22.50;77.70
54485;DHT22;45006;56.958;24.166;2023-02-21T18:30:09;22.50;77.80